createdAt,value
2018-01-18T00:02:15.493Z,99853.55
2018-01-18T00:04:43.028Z,99843.08
2018-01-18T00:07:11.279Z,99845.24
2018-01-18T00:09:38.903Z,99852.58
2018-01-18T00:12:06.435Z,99850.70
2018-01-18T00:14:34.018Z,99847.13
2018-01-18T00:17:01.555Z,99843.11
2018-01-18T00:19:29.090Z,99845.92
2018-01-18T00:21:56.622Z,99847.99
2018-01-18T00:24:24.170Z,99852.58
2018-01-18T00:26:51.701Z,99852.45
2018-01-18T00:29:20.198Z,99861.56
2018-01-18T00:31:47.737Z,99858.75
2018-01-18T00:34:15.271Z,99858.33
2018-01-18T00:36:42.808Z,99856.03
2018-01-18T00:39:10.350Z,99860.74
2018-01-18T00:41:38.811Z,99865.78
2018-01-18T00:44:07.202Z,99874.62
2018-01-18T00:46:34.773Z,99873.25
2018-01-18T00:49:02.306Z,99875.70
2018-01-18T00:51:29.889Z,99878.76
2018-01-18T00:53:57.421Z,99878.73
2018-01-18T00:56:24.998Z,99881.90
2018-01-18T00:58:52.530Z,99886.32
2018-01-18T01:01:20.071Z,99885.64
2018-01-18T01:03:48.372Z,99886.39
2018-01-18T01:06:15.910Z,99889.00
2018-01-18T01:08:44.231Z,99884.91
2018-01-18T01:11:12.024Z,99887.36
2018-01-18T01:13:39.543Z,99888.16
2018-01-18T01:16:07.966Z,99881.73
2018-01-18T01:18:36.550Z,99881.31
2018-01-18T01:21:05.088Z,99878.37
2018-01-18T01:23:33.419Z,99884.48
2018-01-18T01:26:01.912Z,99887.75
2018-01-18T01:28:30.328Z,99888.88
2018-01-18T01:30:58.621Z,99891.42
2018-01-18T01:33:26.160Z,99883.28
2018-01-18T01:35:54.376Z,99888.03
2018-01-18T01:38:21.908Z,99885.91
2018-01-18T01:40:50.230Z,99882.64
2018-01-18T01:43:17.758Z,99893.75
2018-01-18T01:45:45.290Z,99883.29
2018-01-18T01:48:12.866Z,99887.27
2018-01-18T01:50:41.331Z,99891.04
2018-01-18T01:53:08.898Z,99886.68
2018-01-18T01:55:37.258Z,99886.74
2018-01-18T01:58:04.830Z,99890.91
2018-01-18T02:00:32.359Z,99889.78
2018-01-18T02:02:59.990Z,99892.09
2018-01-18T02:05:28.442Z,99886.91
2018-01-18T02:07:55.971Z,99887.84
2018-01-18T02:10:24.427Z,99883.68
2018-01-18T02:12:51.955Z,99878.51
2018-01-18T02:15:19.485Z,99882.87
2018-01-18T02:17:47.914Z,99883.42
2018-01-18T02:20:16.346Z,99879.73
2018-01-18T02:22:43.882Z,99867.68
2018-01-18T02:25:11.454Z,99863.91
2018-01-18T02:27:39.027Z,99859.16
2018-01-18T02:30:06.606Z,99862.88
2018-01-18T02:32:34.133Z,99861.62
2018-01-18T02:35:01.673Z,99862.03
2018-01-18T02:37:29.328Z,99860.58
2018-01-18T02:39:56.862Z,99853.77
2018-01-18T02:42:24.397Z,99858.50
2018-01-18T02:44:51.966Z,99850.38
2018-01-18T02:47:19.495Z,99853.38
2018-01-18T02:49:47.945Z,99847.27
2018-01-18T02:52:15.518Z,99849.62
2018-01-18T02:54:43.055Z,99855.38
2018-01-18T02:57:10.590Z,99848.14
2018-01-18T02:59:38.128Z,99848.94
2018-01-18T03:02:05.661Z,99850.03
2018-01-18T03:04:34.029Z,99851.75
2018-01-18T03:07:01.569Z,99851.20
2018-01-18T03:09:29.891Z,99851.09
2018-01-18T03:11:57.434Z,99847.38
2018-01-18T03:14:25.879Z,99832.39
2018-01-18T03:16:54.438Z,99845.05
2018-01-18T03:19:22.049Z,99844.27
2018-01-18T03:21:49.597Z,99843.27
2018-01-18T03:24:17.169Z,99843.11
2018-01-18T03:26:44.706Z,99840.93
2018-01-18T03:29:12.363Z,99835.33
2018-01-18T03:31:39.901Z,99832.84
2018-01-18T03:34:07.440Z,99833.67
2018-01-18T03:36:34.982Z,99847.29
2018-01-18T03:39:02.513Z,99845.97
2018-01-18T03:41:30.044Z,99844.48
2018-01-18T03:43:57.573Z,99841.65
2018-01-18T03:46:25.109Z,99845.49
2018-01-18T03:48:52.641Z,99842.70
2018-01-18T03:51:20.958Z,99835.33
2018-01-18T03:53:48.490Z,99829.18
2018-01-18T03:56:16.027Z,99827.10
2018-01-18T03:58:43.563Z,99826.67
2018-01-18T04:01:11.098Z,99819.26
2018-01-18T04:03:38.726Z,99820.97
2018-01-18T04:06:06.261Z,99818.07
2018-01-18T04:08:33.841Z,99812.78
2018-01-18T04:11:01.422Z,99809.05
2018-01-18T04:13:28.956Z,99801.05
2018-01-18T04:15:56.498Z,99806.92
2018-01-18T04:18:24.031Z,99804.89
2018-01-18T04:20:51.568Z,99805.50
2018-01-18T04:23:20.058Z,99807.43
2018-01-18T04:25:48.516Z,99796.45
2018-01-18T04:28:16.078Z,99794.93
2018-01-18T04:30:43.609Z,99781.44
2018-01-18T04:33:11.146Z,99778.55
2018-01-18T04:35:38.729Z,99764.17
2018-01-18T04:38:07.162Z,99765.20
2018-01-18T04:40:35.396Z,99771.49
2018-01-18T04:43:02.965Z,99761.16
2018-01-18T04:45:30.497Z,99768.23
2018-01-18T04:47:58.039Z,99761.89
2018-01-18T04:50:25.573Z,99775.55
2018-01-18T04:52:53.916Z,99775.55
2018-01-18T04:55:21.460Z,99776.57
2018-01-18T04:57:49.004Z,99769.69
2018-01-18T05:00:16.550Z,99767.64
2018-01-18T05:02:44.118Z,99766.83
2018-01-18T05:05:11.654Z,99765.69
2018-01-18T05:07:40.127Z,99767.50
2018-01-18T05:10:08.517Z,99763.20
2018-01-18T05:12:36.902Z,99752.58
2018-01-18T05:15:04.435Z,99747.97
2018-01-18T05:17:31.970Z,99752.72
2018-01-18T05:19:59.507Z,99743.52
2018-01-18T05:22:27.050Z,99739.13
2018-01-18T05:24:54.619Z,99731.80
2018-01-18T05:27:23.046Z,99736.69
2018-01-18T05:29:50.635Z,99742.20
2018-01-18T05:32:18.955Z,99739.34
2018-01-18T05:34:46.487Z,99738.50
2018-01-18T05:37:14.918Z,99734.91
2018-01-18T05:39:43.367Z,99734.84
2018-01-18T05:42:11.593Z,99722.94
2018-01-18T05:44:39.131Z,99707.95
2018-01-18T05:47:07.122Z,99707.56
2018-01-18T05:49:34.664Z,99692.34
2018-01-18T05:52:02.238Z,99689.22
2018-01-18T05:54:29.781Z,99685.38
2018-01-18T05:56:57.345Z,99676.86
2018-01-18T05:59:24.927Z,99670.53
2018-01-18T06:01:53.283Z,99667.75
2018-01-18T06:04:21.657Z,99660.55
2018-01-18T06:06:49.201Z,99658.02
2018-01-18T06:09:16.729Z,99655.98
2018-01-18T06:11:44.261Z,99646.41
2018-01-18T06:14:11.852Z,99634.03
2018-01-18T06:16:39.402Z,99620.23
2018-01-18T06:19:07.988Z,99631.00
2018-01-18T06:21:35.528Z,99618.47
2018-01-18T06:24:03.062Z,99614.20
2018-01-18T06:26:30.600Z,99612.20
2018-01-18T06:28:58.154Z,99609.64
2018-01-18T06:31:25.686Z,99605.77
2018-01-18T06:33:53.214Z,99604.49
2018-01-18T06:36:20.758Z,99607.94
2018-01-18T06:38:48.400Z,99607.88
2018-01-18T06:41:15.942Z,99599.91
2018-01-18T06:43:43.482Z,99601.20
2018-01-18T06:46:12.025Z,99590.19
2018-01-18T06:48:39.563Z,99591.20
2018-01-18T06:51:07.107Z,99588.32
2018-01-18T06:53:34.642Z,99587.42
2018-01-18T06:56:02.253Z,99590.91
2018-01-18T06:58:29.793Z,99580.04
2018-01-18T07:00:58.171Z,99576.83
2018-01-18T07:03:25.722Z,99558.97
2018-01-18T07:05:53.262Z,99548.02
2018-01-18T07:08:20.925Z,99540.84
2018-01-18T07:10:48.465Z,99536.05
2018-01-18T07:13:15.999Z,99532.78
2018-01-18T07:15:43.540Z,99521.16
2018-01-18T07:18:11.862Z,99515.89
2018-01-18T07:20:40.134Z,99507.98
2018-01-18T07:23:08.458Z,99494.75
2018-01-18T07:25:35.999Z,99492.31
2018-01-18T07:28:03.536Z,99476.86
2018-01-18T07:30:31.071Z,99465.28
2018-01-18T07:32:58.610Z,99464.61
2018-01-18T07:35:26.967Z,99453.23
2018-01-18T07:37:54.507Z,99456.59
2018-01-18T07:40:22.098Z,99445.25
2018-01-18T07:42:50.826Z,99434.27
2018-01-18T07:45:18.358Z,99420.20
2018-01-18T07:47:46.374Z,99416.40
2018-01-18T07:50:13.911Z,99411.19
2018-01-18T07:52:42.250Z,99394.34
2018-01-18T07:55:09.787Z,99392.38
2018-01-18T07:57:38.151Z,99378.03
2018-01-18T08:00:05.726Z,99354.66
2018-01-18T08:02:33.945Z,99354.05
2018-01-18T08:05:02.598Z,99337.45
2018-01-18T08:07:30.970Z,99322.73
2018-01-18T08:09:59.402Z,99307.12
2018-01-18T08:12:27.854Z,99295.23
2018-01-18T08:14:56.330Z,99288.02
2018-01-18T08:17:24.705Z,99275.98
2018-01-18T08:19:52.289Z,99275.38
2018-01-18T08:22:20.742Z,99270.97
2018-01-18T08:24:49.191Z,99256.20
2018-01-18T08:27:17.517Z,99260.37
2018-01-18T08:29:45.877Z,99241.45
2018-01-18T08:32:14.533Z,99234.27
2018-01-18T08:34:42.094Z,99220.09
2018-01-18T08:37:09.630Z,99223.63
2018-01-18T08:39:38.237Z,99218.86
2018-01-18T08:42:05.804Z,99203.15
2018-01-18T08:44:34.282Z,99194.37
2018-01-18T08:47:03.049Z,99188.33
2018-01-18T08:49:31.461Z,99175.67
2018-01-18T08:51:58.998Z,99171.21
2018-01-18T08:54:26.538Z,99159.07
2018-01-18T08:56:54.082Z,99139.60
2018-01-18T08:59:22.562Z,99130.09
2018-01-18T09:01:50.894Z,99121.99
2018-01-18T09:04:19.334Z,99117.70
2018-01-18T09:06:46.938Z,99110.28
2018-01-18T09:09:14.477Z,99091.31
2018-01-18T09:11:42.058Z,99078.47
2018-01-18T09:14:10.495Z,99073.84
2018-01-18T09:16:38.818Z,99073.67
2018-01-18T09:19:07.162Z,99061.58
2018-01-18T09:21:35.603Z,99059.70
2018-01-18T09:24:03.882Z,99045.48
2018-01-18T09:26:31.426Z,99037.05
2018-01-18T09:28:59.776Z,99026.91
2018-01-18T09:31:28.094Z,99006.44
2018-01-18T09:33:56.450Z,98997.11
2018-01-18T09:36:24.803Z,98979.22
2018-01-18T09:38:53.245Z,98973.02
2018-01-18T09:41:20.821Z,98953.13
2018-01-18T09:43:49.132Z,98923.25
2018-01-18T09:46:16.675Z,98908.50
2018-01-18T09:48:44.224Z,98881.95
2018-01-18T09:51:12.662Z,98875.59
2018-01-18T09:53:40.190Z,98868.66
2018-01-18T09:56:07.730Z,98872.52
2018-01-18T09:58:35.261Z,98863.58
2018-01-18T10:01:02.842Z,98847.50
2018-01-18T10:03:30.379Z,98852.58
2018-01-18T10:05:58.019Z,98850.78
2018-01-18T10:08:26.330Z,98838.87
2018-01-18T10:10:53.971Z,98813.68
2018-01-18T10:13:22.544Z,98803.47
2018-01-18T10:15:50.791Z,98791.10
2018-01-18T10:18:19.138Z,98765.71
2018-01-18T10:20:46.689Z,98746.66
2018-01-18T10:23:14.230Z,98718.33
2018-01-18T10:25:41.765Z,98708.92
2018-01-18T10:28:09.332Z,98692.98
2018-01-18T10:30:37.668Z,98672.36
2018-01-18T10:33:06.079Z,98662.50
2018-01-18T10:35:33.657Z,98645.80
2018-01-18T10:38:01.901Z,98640.34
2018-01-18T10:40:30.293Z,98632.99
2018-01-18T10:42:58.625Z,98631.21
2018-01-18T10:45:26.969Z,98614.70
2018-01-18T10:47:54.534Z,98605.19
2018-01-18T10:50:22.873Z,98593.88
2018-01-18T10:52:51.402Z,98562.95
2018-01-18T10:55:18.933Z,98548.60
2018-01-18T10:57:46.526Z,98543.53
2018-01-18T11:00:14.099Z,98531.97
2018-01-18T11:02:41.738Z,98504.26
2018-01-18T11:05:09.276Z,98482.57
2018-01-18T11:07:36.814Z,98473.91
2018-01-18T11:10:04.563Z,98446.72
2018-01-18T11:12:32.254Z,98436.53
2018-01-18T11:14:59.982Z,98423.24
2018-01-18T11:17:28.535Z,98410.98
2018-01-18T11:19:57.093Z,98396.34
2018-01-18T11:22:25.566Z,98383.98
2018-01-18T11:24:53.164Z,98355.95
2018-01-18T11:27:20.769Z,98337.83
2018-01-18T11:29:48.467Z,98328.14
2018-01-18T11:32:17.556Z,98324.17
2018-01-18T11:34:45.357Z,98300.26
2018-01-18T11:37:13.676Z,98292.87
2018-01-18T11:39:42.122Z,98265.72
2018-01-18T11:42:10.595Z,98256.92
2018-01-18T11:44:39.066Z,98254.39
2018-01-18T11:47:07.404Z,98263.83
2018-01-18T11:49:35.842Z,98249.73
2018-01-18T11:52:03.376Z,98232.92
2018-01-18T11:54:31.746Z,98215.28
2018-01-18T11:57:00.098Z,98197.91
2018-01-18T11:59:29.050Z,98176.59
2018-01-18T12:01:56.578Z,98152.95
2018-01-18T12:04:24.157Z,98143.67
2018-01-18T12:06:51.725Z,98164.44
2018-01-18T12:09:19.255Z,98150.19
2018-01-18T12:11:47.695Z,98118.80
2018-01-18T12:14:24.625Z,98126.52
2018-01-18T12:16:52.217Z,98108.75
2018-01-18T12:19:20.594Z,98090.69
2018-01-18T12:21:49.041Z,98085.89
2018-01-18T12:24:16.642Z,98067.77
2018-01-18T12:26:44.202Z,98059.84
2018-01-18T12:29:11.769Z,98050.03
2018-01-18T12:31:39.303Z,98042.00
2018-01-18T12:34:06.878Z,98032.23
2018-01-18T12:36:35.122Z,98037.08
2018-01-18T12:39:03.639Z,98017.45
2018-01-18T12:41:32.122Z,98025.19
2018-01-18T12:43:59.659Z,98021.91
2018-01-18T12:46:28.106Z,98005.53
2018-01-18T12:48:56.518Z,98002.48
2018-01-18T12:51:26.742Z,97985.55
2018-01-18T12:53:55.888Z,97981.88
2018-01-18T12:56:23.468Z,97958.90
2018-01-18T12:58:51.050Z,97939.45
2018-01-18T13:01:18.587Z,97940.28
2018-01-18T13:03:46.206Z,97926.17
2018-01-18T13:06:13.743Z,97913.19
2018-01-18T13:08:41.274Z,97905.19
2018-01-18T13:11:08.886Z,97908.27
2018-01-18T13:13:36.445Z,97891.36
2018-01-18T13:16:03.981Z,97891.30
2018-01-18T13:18:31.510Z,97874.69
2018-01-18T13:20:59.128Z,97868.72
2018-01-18T13:23:26.657Z,97855.50
2018-01-18T13:25:54.186Z,97857.89
2018-01-18T13:28:21.718Z,97850.59
2018-01-18T13:30:49.254Z,97833.75
2018-01-18T13:33:17.724Z,97828.05
2018-01-18T13:35:45.327Z,97838.98
2018-01-18T13:38:12.869Z,97827.05
2018-01-18T13:40:40.399Z,97819.38
2018-01-18T13:43:07.934Z,97820.09
2018-01-18T13:45:35.482Z,97798.50
2018-01-18T13:48:03.061Z,97780.84
2018-01-18T13:50:30.598Z,97786.61
2018-01-18T13:52:58.234Z,97792.50
2018-01-18T13:55:25.788Z,97786.22
2018-01-18T13:57:56.589Z,97767.08
2018-01-18T14:00:25.038Z,97760.72
2018-01-18T14:02:53.623Z,97767.18
2018-01-18T14:05:21.241Z,97757.47
2018-01-18T14:07:48.794Z,97761.36
2018-01-18T14:10:16.362Z,97744.39
2018-01-18T14:12:43.941Z,97740.20
2018-01-18T14:15:11.476Z,97747.27
2018-01-18T14:17:39.041Z,97751.98
2018-01-18T14:20:06.577Z,97737.08
2018-01-18T14:22:34.368Z,97750.89
2018-01-18T14:25:03.018Z,97770.96
2018-01-18T14:27:30.584Z,97750.27
2018-01-18T14:29:58.380Z,97743.63
2018-01-18T14:32:25.963Z,97758.19
2018-01-18T14:34:54.350Z,97748.47
2018-01-18T14:37:21.971Z,97753.68
2018-01-18T14:39:49.673Z,97750.44
2018-01-18T14:42:17.985Z,97766.03
2018-01-18T14:44:46.429Z,97760.80
2018-01-18T14:47:14.922Z,97749.70
2018-01-18T14:49:42.586Z,97773.88
2018-01-18T14:52:10.123Z,97770.56
2018-01-18T14:54:37.694Z,97780.36
2018-01-18T14:57:05.235Z,97785.98
2018-01-18T14:59:32.780Z,97791.83
2018-01-18T15:02:00.306Z,97789.32
2018-01-18T15:04:28.853Z,97791.98
2018-01-18T15:06:56.422Z,97787.92
2018-01-18T15:09:24.770Z,97803.94
2018-01-18T15:11:52.368Z,97790.78
2018-01-18T15:14:19.974Z,97793.52
2018-01-18T15:16:47.582Z,97810.98
2018-01-18T15:19:15.140Z,97799.70
2018-01-18T15:21:42.809Z,97808.63
2018-01-18T15:24:10.341Z,97824.80
2018-01-18T15:26:38.079Z,97830.73
2018-01-18T15:29:05.658Z,97823.70
2018-01-18T15:31:33.203Z,97836.94
2018-01-18T15:34:00.816Z,97843.31
2018-01-18T15:36:28.454Z,97847.83
2018-01-18T15:38:56.026Z,97852.97
2018-01-18T15:41:23.600Z,97859.31
2018-01-18T15:43:51.178Z,97863.98
2018-01-18T15:46:19.658Z,97861.52
2018-01-18T15:48:47.262Z,97873.33
2018-01-18T15:51:14.836Z,97878.62
2018-01-18T15:53:42.376Z,97874.20
2018-01-18T15:56:09.950Z,97880.81
2018-01-18T15:58:37.481Z,97885.03
2018-01-18T16:01:05.840Z,97900.59
2018-01-18T16:03:33.410Z,97899.52
2018-01-18T16:06:01.720Z,97901.72
2018-01-18T16:08:30.135Z,97900.46
2018-01-18T16:10:58.379Z,97920.09
2018-01-18T16:13:25.946Z,97928.05
2018-01-18T16:15:54.671Z,97933.42
2018-01-18T16:18:22.204Z,97925.42
2018-01-18T16:20:50.710Z,97937.54
2018-01-18T16:23:19.038Z,97942.72
2018-01-18T16:25:46.574Z,97956.63
2018-01-18T16:28:14.111Z,97974.73
2018-01-18T16:30:41.651Z,97966.57
2018-01-18T16:33:09.192Z,97975.00
2018-01-18T16:35:36.786Z,97976.58
2018-01-18T16:38:04.321Z,97994.55
2018-01-18T16:40:31.909Z,97985.52
2018-01-18T16:42:59.479Z,97993.08
2018-01-18T16:45:27.845Z,97998.36
2018-01-18T16:47:55.519Z,98011.83
2018-01-18T16:50:23.155Z,98018.16
2018-01-18T16:52:50.739Z,98016.63
2018-01-18T16:55:18.275Z,98018.80
2018-01-18T16:57:45.806Z,98025.36
2018-01-18T17:00:13.340Z,98047.16
2018-01-18T17:02:41.904Z,98063.77
2018-01-18T17:05:09.436Z,98058.33
2018-01-18T17:07:36.969Z,98058.48
2018-01-18T17:10:04.501Z,98061.59
2018-01-18T17:12:32.035Z,98075.02
2018-01-18T17:14:59.573Z,98093.23
2018-01-18T17:17:27.919Z,98096.74
2018-01-18T17:19:55.506Z,98092.06
2018-01-18T17:22:23.046Z,98120.55
2018-01-18T17:24:50.644Z,98122.66
2018-01-18T17:27:18.307Z,98141.41
2018-01-18T17:29:45.843Z,98122.46
2018-01-18T17:32:14.203Z,98157.38
2018-01-18T17:34:42.689Z,98170.74
2018-01-18T17:37:10.226Z,98176.52
2018-01-18T17:39:37.872Z,98211.98
2018-01-18T17:42:05.529Z,98217.34
2018-01-18T17:44:34.065Z,98223.93
2018-01-18T17:47:01.642Z,98231.94
2018-01-18T17:49:30.014Z,98245.47
2018-01-18T17:51:57.722Z,98263.13
2018-01-18T17:54:25.252Z,98263.91
2018-01-18T17:56:52.823Z,98297.51
2018-01-18T17:59:20.513Z,98308.98
2018-01-18T18:01:48.999Z,98318.47
2018-01-18T18:04:16.706Z,98323.92
2018-01-18T18:06:44.502Z,98375.01
2018-01-18T18:09:12.389Z,98335.05
2018-01-18T18:11:40.128Z,98362.78
2018-01-18T18:14:07.901Z,98379.08
2018-01-18T18:16:35.495Z,98390.69
2018-01-18T18:19:03.333Z,98392.09
2018-01-18T18:21:31.797Z,98432.63
2018-01-18T18:23:59.330Z,98448.98
2018-01-18T18:26:27.744Z,98451.61
2018-01-18T18:28:55.318Z,98480.20
2018-01-18T18:31:22.954Z,98487.02
2018-01-18T18:33:51.405Z,98500.16
2018-01-18T18:36:19.862Z,98493.23
2018-01-18T18:38:47.391Z,98510.59
2018-01-18T18:41:14.982Z,98520.69
2018-01-18T18:43:43.433Z,98531.42
2018-01-18T18:46:10.965Z,98565.00
2018-01-18T18:48:39.443Z,98563.95
2018-01-18T18:51:07.920Z,98559.66
2018-01-18T18:53:35.538Z,98586.34
2018-01-18T18:56:03.075Z,98601.06
2018-01-18T18:58:30.650Z,98592.74
2018-01-18T19:00:58.185Z,98606.81
2018-01-18T19:03:25.783Z,98624.17
2018-01-18T19:05:53.320Z,98637.06
2018-01-18T19:08:20.853Z,98647.27
2018-01-18T19:10:48.386Z,98644.39
2018-01-18T19:13:16.021Z,98663.19
2018-01-18T19:15:43.562Z,98686.12
2018-01-18T19:18:11.105Z,98695.48
2018-01-18T19:20:38.889Z,98704.64
2018-01-18T19:23:06.471Z,98711.34
2018-01-18T19:25:34.217Z,98718.87
2018-01-18T19:28:01.785Z,98748.63
2018-01-18T19:30:29.329Z,98747.91
2018-01-18T19:32:56.971Z,98794.25
2018-01-18T19:35:24.703Z,98775.27
2018-01-18T19:37:52.505Z,98826.02
2018-01-18T19:40:20.602Z,98790.88
2018-01-18T19:42:48.360Z,98825.34
2018-01-18T19:45:16.164Z,98825.97
2018-01-18T19:47:44.024Z,98863.91
2018-01-18T19:50:12.785Z,98844.59
2018-01-18T19:52:40.626Z,98857.33
2018-01-18T19:55:08.203Z,98873.66
2018-01-18T19:57:35.750Z,98899.02
2018-01-18T20:00:03.290Z,98902.26
2018-01-18T20:02:31.110Z,98914.92
2018-01-18T20:04:58.690Z,98910.17
2018-01-18T20:07:26.224Z,98931.67
2018-01-18T20:09:53.754Z,98935.00
2018-01-18T20:12:22.186Z,98941.71
2018-01-18T20:14:50.634Z,98947.63
2018-01-18T20:17:18.254Z,98956.36
2018-01-18T20:19:45.903Z,98961.86
2018-01-18T20:22:13.754Z,98972.82
2018-01-18T20:24:42.140Z,98965.73
2018-01-18T20:27:10.908Z,98990.30
2018-01-18T20:29:39.340Z,99013.95
2018-01-18T20:32:06.873Z,99004.45
2018-01-18T20:34:34.408Z,99015.91
2018-01-18T20:37:01.947Z,99019.20
2018-01-18T20:39:29.482Z,99022.50
2018-01-18T20:41:57.946Z,99028.09
2018-01-18T20:44:25.525Z,99023.75
2018-01-18T20:46:53.053Z,99044.30
2018-01-18T20:49:20.595Z,99047.08
2018-01-18T20:51:48.125Z,99052.58
2018-01-18T20:54:15.663Z,99057.33
2018-01-18T20:56:44.096Z,99059.62
2018-01-18T20:59:12.537Z,99084.50
2018-01-18T21:01:40.111Z,99083.25
2018-01-18T21:04:09.967Z,99097.20
2018-01-18T21:06:37.594Z,99101.38
2018-01-18T21:09:05.129Z,99112.43
2018-01-18T21:11:32.657Z,99108.45
2018-01-18T21:14:00.225Z,99121.12
2018-01-18T21:16:27.766Z,99122.88
2018-01-18T21:18:55.294Z,99123.08
2018-01-18T21:21:22.837Z,99143.86
2018-01-18T21:23:50.365Z,99150.25
2018-01-18T21:26:17.914Z,99160.23
2018-01-18T21:28:45.451Z,99168.25
2018-01-18T21:31:13.792Z,99176.98
2018-01-18T21:33:41.328Z,99187.47
2018-01-18T21:36:09.662Z,99197.53
2018-01-18T21:38:38.042Z,99208.43
2018-01-18T21:41:06.398Z,99210.15
2018-01-18T21:43:34.791Z,99236.94
2018-01-18T21:46:02.322Z,99240.58
2018-01-18T21:48:29.851Z,99259.65
2018-01-18T21:50:58.178Z,99262.00
2018-01-18T21:53:26.500Z,99272.23
2018-01-18T21:55:54.039Z,99271.81
2018-01-18T21:58:21.570Z,99289.59
2018-01-18T22:00:49.109Z,99300.75
2018-01-18T22:03:16.645Z,99309.75
2018-01-18T22:05:44.177Z,99322.56
2018-01-18T22:08:12.655Z,99318.95
2018-01-18T22:10:40.196Z,99331.26
2018-01-18T22:13:07.785Z,99334.45
2018-01-18T22:15:35.329Z,99346.30
2018-01-18T22:18:02.873Z,99341.90
2018-01-18T22:20:31.210Z,99350.78
2018-01-18T22:22:58.750Z,99352.58
2018-01-18T22:25:26.320Z,99369.29
2018-01-18T22:27:53.854Z,99362.15
2018-01-18T22:30:21.427Z,99368.45
2018-01-18T22:32:48.957Z,99385.59
2018-01-18T22:35:16.495Z,99384.02
2018-01-18T22:37:44.078Z,99381.55
2018-01-18T22:40:11.608Z,99400.97
2018-01-18T22:42:39.142Z,99399.41
2018-01-18T22:45:06.678Z,99395.30
2018-01-18T22:47:34.214Z,99406.84
2018-01-18T22:50:01.759Z,99400.52
2018-01-18T22:52:29.850Z,99412.38
2018-01-18T22:54:58.205Z,99412.97
2018-01-18T22:57:25.853Z,99415.94
2018-01-18T22:59:53.386Z,99414.66
2018-01-18T23:02:20.914Z,99415.59
2018-01-18T23:04:48.445Z,99415.13
2018-01-18T23:07:16.765Z,99423.70
2018-01-18T23:09:44.297Z,99421.05
2018-01-18T23:12:12.620Z,99424.48
2018-01-18T23:14:40.186Z,99420.69
2018-01-18T23:17:07.721Z,99436.64
2018-01-18T23:19:35.307Z,99431.88
2018-01-18T23:22:02.841Z,99431.39
2018-01-18T23:24:30.377Z,99433.64
2018-01-18T23:26:57.910Z,99438.64
2018-01-18T23:29:25.442Z,99439.63
2018-01-18T23:31:53.092Z,99445.27
2018-01-18T23:34:21.559Z,99451.92
2018-01-18T23:36:49.099Z,99456.56
2018-01-18T23:39:16.639Z,99458.45
2018-01-18T23:41:44.169Z,99461.33
2018-01-18T23:44:11.703Z,99463.02
2018-01-18T23:46:39.239Z,99464.11
2018-01-18T23:49:06.781Z,99469.53
2018-01-18T23:51:34.309Z,99467.89
2018-01-18T23:54:01.846Z,99474.51
2018-01-18T23:56:29.379Z,99483.84
2018-01-18T23:58:56.913Z,99493.23
